Time;durP1;ratioP1;P1;durP2;ratioP2;P2;SDS_P1;SDS_P2;PMS_P1;PMS_P2;Temp;Humidity;BMP_temperature;BMP_pressure;BME280_temperature;BME280_humidity;BME280_pressure;Samples;Min_cycle;Max_cycle;Signal;HPM_P1;HPM_P2
2024/03/14 00:01:41;;;;;;;7.70;5.68;;;;;;;14.45;60.36;101412.00;4902745;28;123276;-82
2024/03/14 00:04:09;;;;;;;10.85;5.75;;;;;;;14.45;60.56;101414.66;4915705;28;125224;-83
2024/03/14 00:06:36;;;;;;;6.57;5.65;;;;;;;14.43;60.42;101412.13;4888426;28;118947;-82
2024/03/14 00:09:04;;;;;;;8.93;6.13;;;;;;;14.42;60.45;101410.38;4904645;28;119024;-82
2024/03/14 00:11:32;;;;;;;7.47;5.75;;;;;;;14.40;60.69;101412.25;4903106;28;123287;-82
2024/03/14 00:14:00;;;;;;;8.82;5.90;;;;;;;14.40;60.56;101412.25;4912494;28;124764;-83
2024/03/14 00:16:28;;;;;;;8.52;5.78;;;;;;;14.39;60.44;101418.53;4901068;28;120384;-82
2024/03/14 00:18:57;;;;;;;7.55;5.80;;;;;;;14.39;60.67;101405.19;4918309;28;119278;-80
2024/03/14 00:21:26;;;;;;;11.57;6.50;;;;;;;14.39;60.60;101410.53;4899787;28;122571;-81
2024/03/14 00:23:54;;;;;;;8.20;5.95;;;;;;;14.38;60.58;101416.81;4900332;28;122286;-81
2024/03/14 00:26:23;;;;;;;7.72;5.88;;;;;;;14.37;60.48;101415.06;4901337;28;121201;-83
2024/03/14 00:28:52;;;;;;;9.38;6.30;;;;;;;14.36;60.46;101405.38;4897830;28;120780;-81
2024/03/14 00:31:20;;;;;;;7.72;6.05;;;;;;;14.34;60.68;101407.25;4913679;28;123523;-82
2024/03/14 00:33:47;;;;;;;7.88;6.40;;;;;;;14.34;60.62;101404.59;4888605;28;124379;-81
2024/03/14 00:36:14;;;;;;;8.07;6.45;;;;;;;14.35;60.44;101403.63;4901483;28;119846;-85
2024/03/14 00:38:42;;;;;;;8.10;6.90;;;;;;;14.31;60.64;101397.59;4904424;28;118698;-83
2024/03/14 00:41:16;;;;;;;10.13;6.38;;;;;;;14.30;60.60;101400.38;4888152;28;122457;-82
2024/03/14 00:43:43;;;;;;;8.35;6.47;;;;;;;14.28;60.60;101403.09;4887728;28;125202;-82
2024/03/14 00:46:11;;;;;;;11.43;6.88;;;;;;;14.27;60.75;101389.88;4900540;28;119300;-81
2024/03/14 00:48:38;;;;;;;10.45;6.88;;;;;;;14.26;60.54;101388.13;4903434;28;119173;-81
2024/03/14 00:51:06;;;;;;;11.45;7.50;;;;;;;14.25;60.62;101394.41;4887791;28;124100;-82
2024/03/14 00:53:34;;;;;;;9.70;7.18;;;;;;;14.24;60.65;101396.22;4907122;28;125434;-82
2024/03/14 00:56:02;;;;;;;9.82;6.80;;;;;;;14.24;60.63;101395.34;4907615;28;120688;-83
2024/03/14 00:58:29;;;;;;;9.95;7.55;;;;;;;14.24;60.78;101395.34;4905694;28;120023;-84
2024/03/14 01:00:57;;;;;;;11.07;8.20;;;;;;;14.21;60.67;101381.22;4906134;28;124183;-80
2024/03/14 01:03:24;;;;;;;9.80;6.97;;;;;;;14.18;60.66;101386.75;4888389;28;124555;-82
2024/03/14 01:05:52;;;;;;;12.48;7.25;;;;;;;14.17;60.74;101385.00;4890344;28;120973;-81
2024/03/14 01:08:19;;;;;;;9.48;6.85;;;;;;;14.15;60.75;101381.56;4906859;28;118875;-81
2024/03/14 01:10:46;;;;;;;12.15;7.43;;;;;;;14.13;60.69;101383.44;4891845;28;125158;-84
2024/03/14 01:13:15;;;;;;;11.32;7.35;;;;;;;14.13;60.65;101380.78;4906905;28;124937;-84
2024/03/14 01:15:42;;;;;;;10.15;7.40;;;;;;;14.11;60.71;101385.31;4904539;28;120637;-82
2024/03/14 01:18:09;;;;;;;10.55;7.57;;;;;;;14.08;60.66;101385.47;4906857;28;119565;-82
2024/03/14 01:20:39;;;;;;;13.07;7.53;;;;;;;14.06;60.57;101387.34;4890066;28;125244;-84
2024/03/14 01:23:07;;;;;;;9.80;7.40;;;;;;;14.02;60.68;101385.78;4908031;28;124497;-84
2024/03/14 01:25:35;;;;;;;10.10;7.32;;;;;;;14.01;60.63;101386.72;4904041;28;119418;-82
2024/03/14 01:28:03;;;;;;;11.65;7.68;;;;;;;13.98;60.69;101376.25;4889975;28;117320;-84
2024/03/14 01:30:31;;;;;;;10.85;7.47;;;;;;;13.96;60.68;101372.78;4905592;28;122841;-84
2024/03/14 01:32:58;;;;;;;10.38;7.45;;;;;;;13.94;60.59;101378.19;4910891;28;123268;-82
2024/03/14 01:35:26;;;;;;;11.57;7.88;;;;;;;13.93;60.71;101375.59;4891195;28;120378;-83
2024/03/14 01:37:53;;;;;;;11.90;8.02;;;;;;;13.89;60.56;101369.56;4908455;28;118777;-80
2024/03/14 01:40:21;;;;;;;11.88;8.32;;;;;;;13.86;60.58;101368.84;4908910;28;123474;-82
2024/03/14 01:42:55;;;;;;;11.13;7.93;;;;;;;13.82;60.72;101369.03;4909487;28;124044;-82
2024/03/14 01:45:22;;;;;;;10.80;8.32;;;;;;;13.81;60.68;101366.44;4894894;28;119515;-84
2024/03/14 01:47:50;;;;;;;9.13;7.65;;;;;;;13.76;60.56;101358.66;4911732;28;119925;-82
2024/03/14 01:50:18;;;;;;;10.40;7.55;;;;;;;13.76;60.75;101357.81;4910843;28;123898;-82
2024/03/14 01:52:46;;;;;;;9.93;7.55;;;;;;;13.73;60.56;101353.53;4913140;28;122918;-83
2024/03/14 01:55:14;;;;;;;10.95;8.23;;;;;;;13.71;60.90;101355.41;4913874;28;117507;-85
2024/03/14 01:57:42;;;;;;;10.73;7.97;;;;;;;13.69;60.85;101351.91;4917315;28;119403;-83
2024/03/14 02:00:14;;;;;;;10.43;7.82;;;;;;;13.66;60.80;101352.09;4906122;28;122410;-80
2024/03/14 02:02:42;;;;;;;11.38;8.05;;;;;;;13.64;60.81;101359.28;4902527;28;122421;-82
2024/03/14 02:05:13;;;;;;;10.02;7.93;;;;;;;13.64;60.91;101353.97;4918242;28;119279;-83
2024/03/14 02:07:42;;;;;;;10.60;8.20;;;;;;;13.62;60.94;101345.22;4918132;28;119606;-83
2024/03/14 02:10:12;;;;;;;11.05;8.02;;;;;;;13.61;60.92;101348.78;4917146;28;123382;-82
2024/03/14 02:12:41;;;;;;;11.83;8.17;;;;;;;13.60;60.79;101341.75;4916616;28;123516;-83
2024/03/14 02:15:08;;;;;;;9.35;7.75;;;;;;;13.60;60.87;101344.41;4922599;28;119755;-81
2024/03/14 02:17:36;;;;;;;12.10;8.20;;;;;;;13.60;60.86;101336.44;4905325;28;118699;-84
2024/03/14 02:20:06;;;;;;;11.88;8.23;;;;;;;13.59;60.89;101329.38;4918899;28;124102;-84
2024/03/14 02:22:34;;;;;;;13.70;8.60;;;;;;;13.59;60.84;101334.69;4915905;28;123852;-82
2024/03/14 02:25:02;;;;;;;12.70;8.35;;;;;;;13.57;60.99;101326.78;4915892;28;119568;-81
2024/03/14 02:27:29;;;;;;;11.73;8.13;;;;;;;13.57;60.71;101331.25;4916099;28;117280;-81
2024/03/14 02:29:56;;;;;;;10.13;7.63;;;;;;;13.55;60.91;101322.50;4911868;28;124177;-82
2024/03/14 02:32:24;;;;;;;10.30;8.85;;;;;;;13.54;60.93;101326.06;4916999;28;124906;-82
2024/03/14 02:34:51;;;;;;;12.23;8.48;;;;;;;13.52;60.94;101311.97;4914001;28;118635;-83
2024/03/14 02:37:19;;;;;;;13.77;8.25;;;;;;;13.51;60.88;101315.59;4921524;28;118444;-83
2024/03/14 02:39:46;;;;;;;8.27;5.90;;;;;;;13.50;61.03;101311.19;4924410;28;124911;-83
2024/03/14 02:42:14;;;;;;;7.20;5.15;;;;;;;13.48;60.91;101321.06;4922038;28;124927;-82
2024/03/14 02:44:43;;;;;;;11.65;8.20;;;;;;;13.47;60.87;101319.31;4925130;28;120388;-83
2024/03/14 02:47:10;;;;;;;11.25;5.95;;;;;;;13.47;60.99;101314.00;4916050;28;118637;-84
2024/03/14 02:49:38;;;;;;;11.90;7.30;;;;;;;13.46;61.09;101313.16;4923252;28;125943;-83
2024/03/14 02:52:06;;;;;;;9.70;7.25;;;;;;;13.44;61.07;101315.88;4925006;28;122713;-84
2024/03/14 02:54:33;;;;;;;10.10;7.43;;;;;;;13.43;61.11;101308.84;4921665;28;121864;-82
2024/03/14 02:57:00;;;;;;;9.70;7.30;;;;;;;13.42;61.08;101307.13;4921790;28;121724;-83
2024/03/14 02:59:29;;;;;;;8.93;7.55;;;;;;;13.40;61.09;101303.69;4922345;28;123604;-83
2024/03/14 03:01:58;;;;;;;10.05;7.40;;;;;;;13.40;61.15;101302.81;4926017;28;126582;-82
2024/03/14 03:04:30;;;;;;;10.30;7.88;;;;;;;13.38;61.00;101302.91;4926967;28;120164;-83
2024/03/14 03:07:00;;;;;;;9.15;7.15;;;;;;;13.37;61.32;101303.84;4920089;28;118844;-83
2024/03/14 03:09:29;;;;;;;9.02;7.30;;;;;;;13.36;61.10;101302.09;4927781;28;123698;-84
2024/03/14 03:12:00;;;;;;;10.48;7.60;;;;;;;13.35;61.23;101305.69;4929550;28;123709;-83
2024/03/14 03:14:27;;;;;;;9.15;7.47;;;;;;;13.35;61.11;101305.69;4926906;28;119574;-83
2024/03/14 03:16:54;;;;;;;10.88;7.80;;;;;;;13.36;61.21;101306.56;4923778;28;118650;-84
2024/03/14 03:19:22;;;;;;;12.07;7.32;;;;;;;13.34;61.21;101306.66;4918244;28;124957;-83
2024/03/14 03:21:50;;;;;;;10.30;7.03;;;;;;;13.35;61.39;101305.69;4922649;28;123364;-81
2024/03/14 03:24:17;;;;;;;9.50;7.50;;;;;;;13.37;61.06;101298.53;4925408;28;118627;-82
2024/03/14 03:26:45;;;;;;;10.48;7.30;;;;;;;13.37;61.14;101298.53;4910671;28;120147;-84
2024/03/14 03:29:13;;;;;;;9.77;6.93;;;;;;;13.33;60.83;101291.59;4926820;28;124637;-83
2024/03/14 03:31:41;;;;;;;11.40;7.28;;;;;;;13.32;61.00;101294.38;4923607;28;123269;-83
2024/03/14 03:34:08;;;;;;;8.25;6.70;;;;;;;13.30;61.07;101291.78;4928893;28;119962;-83
2024/03/14 03:36:36;;;;;;;8.05;6.75;;;;;;;13.30;60.91;101290.84;4928522;28;117173;-81
2024/03/14 03:39:11;;;;;;;9.38;6.40;;;;;;;13.29;61.08;101284.69;4902289;28;124197;-86
2024/03/14 03:41:39;;;;;;;10.82;7.03;;;;;;;13.28;61.10;101282.09;4928035;28;124397;-81
2024/03/14 03:44:06;;;;;;;9.13;7.22;;;;;;;13.27;61.06;101283.91;4929460;28;121413;-84
2024/03/14 03:46:35;;;;;;;8.48;6.53;;;;;;;13.26;61.18;101279.53;4928044;28;119347;-81
2024/03/14 03:49:03;;;;;;;10.80;7.28;;;;;;;13.26;61.26;101284.84;4929289;28;124712;-83
2024/03/14 03:51:30;;;;;;;10.55;7.07;;;;;;;13.25;61.19;101280.47;4929089;28;125608;-81
2024/03/14 03:53:57;;;;;;;7.90;6.57;;;;;;;13.24;61.18;101276.06;4930939;28;118890;-83
2024/03/14 03:56:25;;;;;;;9.75;8.38;;;;;;;13.23;61.25;101274.34;4928522;28;118652;-83
2024/03/14 03:58:55;;;;;;;9.27;6.28;;;;;;;13.20;61.16;101269.19;4931503;28;123770;-84
2024/03/14 04:01:22;;;;;;;12.27;6.53;;;;;;;13.21;61.26;101273.56;4930571;28;123192;-84
2024/03/14 04:03:51;;;;;;;9.00;6.45;;;;;;;13.19;61.21;101278.13;4930914;28;120444;-81
2024/03/14 04:06:19;;;;;;;9.45;7.00;;;;;;;13.18;61.18;101271.91;4930241;28;118152;-82
2024/03/14 04:08:46;;;;;;;9.55;6.35;;;;;;;13.16;61.27;101272.94;4930089;28;124655;-81
2024/03/14 04:11:15;;;;;;;8.18;6.65;;;;;;;13.14;61.27;101264.16;4927620;28;123467;-83
2024/03/14 04:13:44;;;;;;;7.35;6.03;;;;;;;13.14;61.32;101269.50;4928544;28;121783;-82
2024/03/14 04:16:15;;;;;;;7.85;6.45;;;;;;;13.12;61.48;101276.69;4930560;28;119308;-84
2024/03/14 04:18:44;;;;;;;7.45;5.90;;;;;;;13.10;61.29;101265.25;4930069;28;124277;-81
2024/03/14 04:21:16;;;;;;;9.57;6.30;;;;;;;13.08;61.33;101265.34;4930528;28;124644;-82
2024/03/14 04:23:45;;;;;;;7.80;6.07;;;;;;;13.08;61.39;101267.13;4925681;28;120095;-81
2024/03/14 04:26:15;;;;;;;9.45;6.72;;;;;;;13.07;61.41;101273.38;4930773;28;121623;-81
2024/03/14 04:28:44;;;;;;;7.20;5.78;;;;;;;13.07;61.33;101268.06;4932886;28;123429;-82
2024/03/14 04:31:11;;;;;;;9.90;6.03;;;;;;;13.07;61.22;101268.06;4936335;28;124116;-82
2024/03/14 04:33:39;;;;;;;8.25;5.57;;;;;;;13.05;61.48;101262.81;4933645;28;119823;-81
2024/03/14 04:36:08;;;;;;;7.00;5.63;;;;;;;13.03;61.30;101262.91;4933050;28;120650;-84
2024/03/14 04:38:37;;;;;;;6.72;5.18;;;;;;;13.03;61.38;101262.91;4932762;28;124208;-82
2024/03/14 04:41:14;;;;;;;7.03;5.38;;;;;;;13.02;61.55;101261.16;4933660;28;124834;-84
2024/03/14 04:43:43;;;;;;;7.40;4.70;;;;;;;13.02;61.44;101255.84;4932895;28;118945;-84
2024/03/14 04:46:10;;;;;;;8.18;5.22;;;;;;;12.99;61.46;101256.00;4934497;28;119904;-80
2024/03/14 04:48:38;;;;;;;7.60;5.20;;;;;;;13.00;61.45;101257.72;4933011;28;124549;-82
2024/03/14 04:51:06;;;;;;;8.43;5.55;;;;;;;13.00;61.61;101257.72;4931856;28;124403;-82
2024/03/14 04:53:34;;;;;;;6.45;4.85;;;;;;;12.99;61.42;101256.00;4933115;28;119480;-80
2024/03/14 04:56:03;;;;;;;6.95;4.85;;;;;;;12.97;61.54;101252.53;4934659;28;119464;-83
2024/03/14 04:58:30;;;;;;;6.80;5.40;;;;;;;12.96;61.56;101249.97;4933879;28;123447;-84
2024/03/14 05:00:57;;;;;;;6.80;4.88;;;;;;;12.95;61.56;101259.75;4932297;28;124209;-81
2024/03/14 05:03:28;;;;;;;6.40;4.93;;;;;;;12.95;61.49;101259.75;4934014;28;118712;-83
2024/03/14 05:05:56;;;;;;;6.18;4.75;;;;;;;12.94;61.31;101258.03;4933910;28;120192;-84
2024/03/14 05:08:24;;;;;;;7.03;4.53;;;;;;;12.94;61.69;101257.16;4917507;28;123264;-82
2024/03/14 05:10:51;;;;;;;5.88;4.60;;;;;;;12.93;61.51;101260.75;4932502;28;124357;-81
2024/03/14 05:13:19;;;;;;;6.45;4.78;;;;;;;12.93;61.65;101256.28;4934237;28;120359;-81
2024/03/14 05:15:47;;;;;;;7.25;5.00;;;;;;;12.92;61.54;101259.91;4934551;28;119595;-81
2024/03/14 05:18:15;;;;;;;5.90;4.38;;;;;;;12.89;61.56;101260.03;4933307;28;124860;-83
2024/03/14 05:20:43;;;;;;;5.40;4.60;;;;;;;12.90;61.65;101259.09;4932784;28;123479;-80
2024/03/14 05:23:10;;;;;;;6.53;4.82;;;;;;;12.89;61.67;101260.03;4932981;28;121712;-83
2024/03/14 05:25:37;;;;;;;6.32;4.70;;;;;;;12.88;61.57;101268.94;4931238;28;120101;-82
2024/03/14 05:28:06;;;;;;;5.78;4.82;;;;;;;12.87;61.45;101272.56;4934194;28;124750;-82
2024/03/14 05:30:33;;;;;;;5.88;4.50;;;;;;;12.87;61.47;101258.41;4933005;28;124321;-82
2024/03/14 05:33:01;;;;;;;6.25;4.57;;;;;;;12.86;61.58;101260.19;4933180;28;120828;-81
2024/03/14 05:35:29;;;;;;;4.97;3.30;;;;;;;12.83;61.55;101255.03;4932395;28;118434;-84
2024/03/14 05:37:57;;;;;;;4.20;2.88;;;;;;;12.82;61.52;101258.59;4933359;28;124453;-81
2024/03/14 05:40:24;;;;;;;5.03;3.10;;;;;;;12.82;61.51;101253.28;4932685;28;125771;-81
2024/03/14 05:42:55;;;;;;;6.07;3.17;;;;;;;12.81;61.73;101256.91;4932418;28;120420;-82
2024/03/14 05:45:23;;;;;;;6.25;3.20;;;;;;;12.82;61.64;101258.59;4931929;28;119691;-82
2024/03/14 05:48:04;;;;;;;5.07;3.17;;;;;;;12.81;61.41;101262.22;4932343;28;124935;-81
2024/03/14 05:50:32;;;;;;;7.78;3.22;;;;;;;12.81;61.17;101263.06;4933392;28;124928;-81
2024/03/14 05:53:00;;;;;;;5.38;3.33;;;;;;;12.81;61.41;101262.22;4932293;28;119104;-83
2024/03/14 05:55:27;;;;;;;5.50;3.55;;;;;;;12.79;61.28;101256.09;4915872;28;120890;-83
2024/03/14 05:57:54;;;;;;;5.25;3.22;;;;;;;12.78;61.43;101257.03;4933856;28;99369;-83
2024/03/14 06:00:22;;;;;;;8.52;3.22;;;;;;;12.76;61.32;101259.75;4934231;28;124508;-80
2024/03/14 06:02:51;;;;;;;4.38;2.92;;;;;;;12.75;61.48;101246.53;4931038;28;118955;-83
2024/03/14 06:05:19;;;;;;;4.55;2.80;;;;;;;12.74;61.40;101252.81;4935291;28;119869;-81
2024/03/14 06:07:46;;;;;;;5.97;3.20;;;;;;;12.72;61.33;101252.03;4927129;28;124637;-83
2024/03/14 06:10:14;;;;;;;3.38;2.72;;;;;;;12.69;61.36;101253.00;4929427;28;123354;-82
2024/03/14 06:12:45;;;;;;;6.05;3.50;;;;;;;12.68;61.38;101255.72;4932760;28;120903;-81
2024/03/14 06:15:13;;;;;;;6.97;3.33;;;;;;;12.69;61.39;101254.81;4932641;28;120884;-81
2024/03/14 06:17:41;;;;;;;4.57;3.30;;;;;;;12.66;61.40;101255.84;4934244;28;124630;-82
2024/03/14 06:20:12;;;;;;;5.10;3.20;;;;;;;12.66;61.50;101248.72;4934266;28;124572;-81
2024/03/14 06:22:44;;;;;;;4.70;2.80;;;;;;;12.65;61.27;101257.59;4930181;28;119511;-81
2024/03/14 06:25:11;;;;;;;4.35;3.13;;;;;;;12.65;61.18;101262.91;4930950;28;120310;-80
2024/03/14 06:27:39;;;;;;;5.00;3.17;;;;;;;12.63;61.54;101254.16;4932583;28;125963;-83
2024/03/14 06:30:09;;;;;;;4.88;2.97;;;;;;;12.64;61.39;101261.22;4933212;28;124288;-82
2024/03/14 06:32:41;;;;;;;4.90;3.20;;;;;;;12.63;61.47;101248.84;4933889;28;118920;-80
2024/03/14 06:35:09;;;;;;;6.47;3.33;;;;;;;12.64;61.42;101250.59;4928168;28;119845;-81
2024/03/14 06:37:36;;;;;;;4.45;2.97;;;;;;;12.63;61.50;101243.53;4932932;28;124628;-81
2024/03/14 06:40:06;;;;;;;6.30;2.78;;;;;;;12.64;61.74;101245.25;4929892;28;124729;-81
2024/03/14 06:42:34;;;;;;;4.68;2.80;;;;;;;12.65;61.42;101249.63;4930192;28;118308;-81
2024/03/14 06:45:04;;;;;;;3.80;2.70;;;;;;;12.68;61.54;101253.06;4933584;28;121505;-80
2024/03/14 06:47:33;;;;;;;5.18;2.83;;;;;;;12.69;61.56;101246.84;4930219;28;123460;-80
2024/03/14 06:50:03;;;;;;;5.10;3.15;;;;;;;12.71;61.44;101250.28;4912721;28;123503;-80
2024/03/14 06:52:30;;;;;;;5.47;3.30;;;;;;;12.73;61.65;101251.06;4927334;28;118668;-82
2024/03/14 06:54:58;;;;;;;4.38;2.85;;;;;;;12.76;61.64;101256.25;4931283;28;121793;-88
2024/03/14 06:57:25;;;;;;;6.10;3.00;;;;;;;12.81;61.73;101248.94;4915918;28;123687;-87
2024/03/14 06:59:52;;;;;;;5.50;2.83;;;;;;;12.89;61.71;101237.94;4929434;28;124713;-86
2024/03/14 07:02:21;;;;;;;4.07;2.90;;;;;;;12.97;61.76;101247.22;4931110;28;121864;-85
2024/03/14 07:04:48;;;;;;;4.53;2.80;;;;;;;13.08;61.77;101248.53;4933396;28;120468;-86
2024/03/14 07:07:16;;;;;;;4.32;3.10;;;;;;;13.16;61.93;101241.88;4931185;28;123273;-86
2024/03/14 07:09:45;;;;;;;4.30;2.85;;;;;;;13.28;61.84;101250.19;4910212;28;124311;-86
2024/03/14 07:12:15;;;;;;;5.35;2.92;;;;;;;13.38;61.96;101252.34;4909791;28;120368;-85
2024/03/14 07:14:42;;;;;;;4.53;2.95;;;;;;;13.49;61.90;101253.63;4920500;28;118340;-88
2024/03/14 07:17:09;;;;;;;4.40;3.20;;;;;;;13.56;61.75;101249.69;4918972;28;123624;-85
2024/03/14 07:19:37;;;;;;;4.82;3.65;;;;;;;13.63;61.80;101256.41;4902188;28;125565;-85
2024/03/14 07:22:05;;;;;;;4.65;2.80;;;;;;;13.71;61.72;101259.56;4913585;28;119894;-86
2024/03/14 07:24:33;;;;;;;4.70;2.85;;;;;;;13.78;61.74;101255.63;4898206;28;117569;-86
2024/03/14 07:27:02;;;;;;;6.85;2.80;;;;;;;13.82;61.74;101257.22;4915991;28;126377;-83
2024/03/14 07:29:31;;;;;;;4.88;2.72;;;;;;;13.91;61.70;101260.31;4908317;28;123464;-83
2024/03/14 07:31:59;;;;;;;4.80;3.00;;;;;;;13.96;61.61;101259.13;4908461;28;119335;-85
2024/03/14 07:34:26;;;;;;;4.13;2.67;;;;;;;14.03;61.49;101259.66;4890895;28;120069;-84
2024/03/14 07:36:53;;;;;;;5.28;3.30;;;;;;;14.08;61.59;101254.97;4905150;28;122573;-84
2024/03/14 07:39:25;;;;;;;6.22;3.05;;;;;;;14.13;61.38;101250.25;4900759;28;123017;-82
2024/03/14 07:41:52;;;;;;;4.85;3.20;;;;;;;14.19;61.42;101249.91;4900001;28;119762;-84
2024/03/14 07:44:20;;;;;;;4.03;2.97;;;;;;;14.26;61.37;101252.25;4885023;28;118705;-84
2024/03/14 07:46:59;;;;;;;3.90;2.50;;;;;;;14.30;61.42;101256.50;4890519;28;124103;-84
2024/03/14 07:49:30;;;;;;;4.95;3.40;;;;;;;14.36;61.45;101245.50;4893057;28;123397;-84
2024/03/14 07:51:57;;;;;;;3.80;2.78;;;;;;;14.43;61.44;101246.88;4900527;28;120210;-83
2024/03/14 07:54:27;;;;;;;4.25;2.88;;;;;;;14.49;61.24;101246.53;4903572;28;119036;-85
2024/03/14 07:56:54;;;;;;;4.78;2.95;;;;;;;14.53;61.42;101248.09;4889865;28;123021;-83
2024/03/14 07:59:23;;;;;;;5.55;3.25;;;;;;;14.58;61.13;101246.06;4887472;28;125163;-86
2024/03/14 08:01:52;;;;;;;3.88;3.05;;;;;;;14.63;61.24;101247.59;4902421;28;118873;-83
2024/03/14 08:04:23;;;;;;;4.07;3.10;;;;;;;14.70;61.21;101254.31;4901990;28;119954;-85
2024/03/14 08:06:51;;;;;;;4.60;2.75;;;;;;;14.73;61.13;101254.13;4879421;28;125033;-83
2024/03/14 08:09:26;;;;;;;6.57;3.03;;;;;;;14.77;61.20;101253.91;4900421;28;122997;-85
2024/03/14 08:11:54;;;;;;;4.45;2.90;;;;;;;14.85;61.17;101253.47;4900031;28;120665;-86
2024/03/14 08:14:22;;;;;;;5.28;2.80;;;;;;;14.89;61.22;101248.81;4904385;28;119113;-83
2024/03/14 08:16:49;;;;;;;6.45;2.80;;;;;;;14.94;61.00;101252.94;4876013;28;125741;-87
2024/03/14 08:19:18;;;;;;;6.05;3.50;;;;;;;14.98;60.97;101254.47;4903742;28;125721;-85
2024/03/14 08:21:47;;;;;;;4.10;2.35;;;;;;;15.03;61.09;101250.69;4889884;28;120491;-85
2024/03/14 08:24:16;;;;;;;5.63;3.25;;;;;;;15.09;61.10;101245.03;4904471;28;118628;-85
2024/03/14 08:26:46;;;;;;;5.15;2.70;;;;;;;15.16;61.05;101251.69;4902446;28;125188;-84
2024/03/14 08:29:14;;;;;;;3.45;2.47;;;;;;;15.22;61.04;101251.38;4886698;28;124982;-84
2024/03/14 08:31:41;;;;;;;5.03;2.53;;;;;;;15.29;61.16;101250.03;4897738;28;118991;-85
2024/03/14 08:34:09;;;;;;;3.65;2.50;;;;;;;15.36;60.93;101243.41;4888600;28;119555;-84
2024/03/14 08:36:40;;;;;;;3.95;2.50;;;;;;;15.44;60.87;101255.44;4891946;28;126287;-85
2024/03/14 08:39:11;;;;;;;4.70;3.10;;;;;;;15.51;60.72;101249.63;4903291;28;124488;-86
2024/03/14 08:41:38;;;;;;;4.03;2.40;;;;;;;15.58;60.82;101252.81;4890041;28;120683;-84
2024/03/14 08:44:05;;;;;;;4.88;2.95;;;;;;;15.65;60.84;101243.50;4889009;28;118494;-85
2024/03/14 08:46:33;;;;;;;3.78;2.50;;;;;;;15.73;60.89;101249.25;4903339;28;123221;-85
2024/03/14 08:49:00;;;;;;;3.42;2.55;;;;;;;15.80;60.36;101246.22;4895463;28;123497;-85
2024/03/14 08:51:28;;;;;;;4.72;2.50;;;;;;;15.84;60.39;101247.72;4905241;28;120166;-86
2024/03/14 08:54:08;;;;;;;3.65;2.78;;;;;;;15.87;60.46;101247.56;4889598;28;120105;-86
2024/03/14 08:56:37;;;;;;;5.47;2.85;;;;;;;15.89;60.39;101245.66;4909706;28;124600;-85
2024/03/14 08:59:04;;;;;;;4.85;2.50;;;;;;;15.91;60.40;101249.09;4890320;28;125070;-85
2024/03/14 09:01:31;;;;;;;4.53;2.70;;;;;;;15.94;60.47;101249.75;4905302;28;120071;-83
2024/03/14 09:03:59;;;;;;;4.07;2.50;;;;;;;15.99;60.27;101246.78;4904371;28;118955;-84
2024/03/14 09:06:28;;;;;;;4.88;2.90;;;;;;;16.03;60.34;101248.34;4889514;28;125124;-84
2024/03/14 09:09:05;;;;;;;4.28;2.83;;;;;;;16.09;60.46;101237.28;4883389;28;124645;-83
2024/03/14 09:11:33;;;;;;;4.07;2.83;;;;;;;16.18;60.24;101240.31;4895503;28;119866;-86
2024/03/14 09:14:05;;;;;;;5.10;2.65;;;;;;;16.23;59.99;101244.41;4889564;28;119783;-86
2024/03/14 09:16:37;;;;;;;2.83;2.20;;;;;;;16.28;60.02;101241.47;4901170;28;125247;-85
2024/03/14 09:19:04;;;;;;;3.80;2.55;;;;;;;16.31;59.87;101243.94;4884196;28;124176;-84
2024/03/14 09:21:32;;;;;;;4.13;2.70;;;;;;;16.38;60.00;101247.94;4908201;28;119011;-85
2024/03/14 09:23:59;;;;;;;4.28;2.40;;;;;;;16.47;59.84;101241.19;4892786;28;119589;-84
2024/03/14 09:26:28;;;;;;;4.43;2.50;;;;;;;16.57;59.96;101242.28;4906405;28;123714;-86
2024/03/14 09:28:55;;;;;;;2.92;2.08;;;;;;;16.65;60.05;101239.13;4904507;28;125096;-84
2024/03/14 09:31:24;;;;;;;4.90;1.98;;;;;;;16.71;59.81;101239.59;4906897;28;120681;-86
2024/03/14 09:33:52;;;;;;;3.75;2.22;;;;;;;16.77;59.79;101238.34;4882340;28;120989;-84
2024/03/14 09:36:19;;;;;;;2.95;2.25;;;;;;;16.87;60.05;101223.44;4903857;28;125592;-85
2024/03/14 09:38:47;;;;;;;2.70;1.90;;;;;;;16.98;59.98;101235.25;4889609;28;124950;-84
2024/03/14 09:41:16;;;;;;;3.05;2.03;;;;;;;17.07;59.82;101231.97;4891538;28;119010;-85
2024/03/14 09:43:50;;;;;;;3.85;2.10;;;;;;;17.15;59.53;101231.47;4902680;28;119698;-86
2024/03/14 09:46:26;;;;;;;2.38;1.90;;;;;;;17.22;59.52;101232.78;4900579;28;124904;-85
2024/03/14 09:48:56;;;;;;;4.05;1.85;;;;;;;17.27;59.40;101226.16;4901207;28;123569;-85
2024/03/14 09:51:24;;;;;;;3.50;2.38;;;;;;;17.32;59.29;101228.50;4888165;28;119501;-85
2024/03/14 09:53:54;;;;;;;2.95;1.60;;;;;;;17.36;59.11;101226.50;4902757;28;120970;-84
2024/03/14 09:56:22;;;;;;;3.00;2.00;;;;;;;17.36;58.83;101229.16;4902748;28;124482;-86
2024/03/14 09:58:49;;;;;;;2.85;2.03;;;;;;;17.35;58.76;101222.09;4888556;28;124294;-84
2024/03/14 10:01:20;;;;;;;3.53;2.00;;;;;;;17.32;58.75;101218.66;4887355;28;119670;-85
2024/03/14 10:03:48;;;;;;;3.92;1.90;;;;;;;17.33;58.78;101230.25;4904496;28;120138;-84
2024/03/14 10:06:17;;;;;;;4.10;2.38;;;;;;;17.37;58.75;101217.50;4901045;28;124527;-82
2024/03/14 10:08:46;;;;;;;3.00;2.40;;;;;;;17.38;58.35;101221.88;4875279;28;125345;-83
2024/03/14 10:11:14;;;;;;;3.97;2.30;;;;;;;17.39;58.72;101218.25;4893245;28;119439;-82
2024/03/14 10:13:43;;;;;;;4.32;2.10;;;;;;;17.45;58.75;101215.16;4882520;28;121002;-84
2024/03/14 10:16:10;;;;;;;3.03;1.83;;;;;;;17.53;58.68;101212.81;4902908;28;125460;-85
2024/03/14 10:18:39;;;;;;;3.95;1.98;;;;;;;17.59;58.54;101209.69;4891202;28;124965;-85
2024/03/14 10:21:07;;;;;;;3.58;1.95;;;;;;;17.67;58.59;101206.53;4883634;28;120254;-85
2024/03/14 10:23:39;;;;;;;2.40;1.70;;;;;;;17.75;58.49;101203.31;4883456;28;121751;-85
2024/03/14 10:26:09;;;;;;;2.72;1.98;;;;;;;17.87;58.46;101205.16;4890779;28;125484;-83
2024/03/14 10:28:39;;;;;;;3.00;2.00;;;;;;;17.95;58.45;101200.13;4902601;28;123717;-83
2024/03/14 10:31:07;;;;;;;2.55;1.75;;;;;;;18.05;58.31;101206.53;4905769;28;119289;-82
2024/03/14 10:33:37;;;;;;;2.75;1.83;;;;;;;18.15;58.41;101206.72;4903076;28;119752;-83
2024/03/14 10:36:09;;;;;;;2.78;1.80;;;;;;;18.23;58.14;101187.41;4906797;28;125204;-82
2024/03/14 10:38:41;;;;;;;2.85;2.03;;;;;;;18.34;58.27;101195.53;4884486;28;125189;-83
2024/03/14 10:41:09;;;;;;;2.22;1.75;;;;;;;18.45;58.06;101192.94;4886420;28;120244;-83
2024/03/14 10:43:40;;;;;;;2.50;1.60;;;;;;;18.56;58.11;101188.63;4904281;28;120740;-83
2024/03/14 10:46:15;;;;;;;3.53;1.90;;;;;;;18.64;57.67;101181.72;4907449;28;123691;-84
2024/03/14 10:48:44;;;;;;;2.40;1.70;;;;;;;18.67;57.71;101180.66;4898636;28;122944;-82
2024/03/14 10:51:13;;;;;;;2.33;1.70;;;;;;;18.71;57.54;101182.13;4903034;28;120829;-84
2024/03/14 10:53:41;;;;;;;3.47;1.80;;;;;;;18.76;57.45;101182.66;4900844;28;120161;-83
2024/03/14 10:56:16;;;;;;;2.65;1.90;;;;;;;18.85;57.61;101179.31;4888871;28;125043;-83
2024/03/14 10:58:45;;;;;;;;;;;;;;;18.92;57.87;101173.50;4900588;28;124879;-82
2024/03/14 11:01:13;;;;;;;2.20;1.58;;;;;;;19.03;57.36;101171.69;4890292;28;121355;-82
2024/03/14 11:03:41;;;;;;;2.60;1.48;;;;;;;19.10;57.42;101166.75;4892321;28;120069;-82
2024/03/14 11:06:14;;;;;;;5.00;1.83;;;;;;;19.18;57.30;101169.69;4915172;28;124957;-84
2024/03/14 11:08:46;;;;;;;2.40;1.55;;;;;;;19.27;56.91;101168.13;4889082;28;124254;-85
2024/03/14 11:11:17;;;;;;;2.78;1.35;;;;;;;19.37;56.75;101168.28;4902830;28;120947;-83
2024/03/14 11:13:50;;;;;;;2.50;1.67;;;;;;;19.45;56.41;101160.47;4910652;28;120469;-82
2024/03/14 11:16:23;;;;;;;2.15;1.83;;;;;;;19.51;56.23;101159.13;4907182;28;124968;-82
2024/03/14 11:18:59;;;;;;;1.70;1.35;;;;;;;19.54;55.91;101153.53;4899134;28;124948;-83
2024/03/14 11:21:33;;;;;;;2.00;1.45;;;;;;;19.63;55.92;101153.66;4888561;28;120276;-81
2024/03/14 11:24:12;;;;;;;1.67;1.40;;;;;;;19.72;55.35;101156.59;4883005;28;120231;-82